Time;durP1;ratioP1;P1;durP2;ratioP2;P2;SDS_P1;SDS_P2;PMS_P1;PMS_P2;Temp;Humidity;BMP_temperature;BMP_pressure;BME280_temperature;BME280_humidity;BME280_pressure;Samples;Min_cycle;Max_cycle;Signal;HPM_P1;HPM_P2
2023/01/23 00:02:06;;;;;;;53.10;21.80;;;;;;;0.31;100.00;101599.56;4988126;23;21418;-68
2023/01/23 00:04:33;;;;;;;56.07;20.30;;;;;;;0.19;100.00;101603.44;5005167;23;21724;-72
2023/01/23 00:07:02;;;;;;;57.83;19.93;;;;;;;0.02;100.00;101610.94;4991399;23;20400;-71
2023/01/23 00:09:28;;;;;;;53.67;21.67;;;;;;;0.08;100.00;101605.53;4999476;23;20212;-70
2023/01/23 00:11:55;;;;;;;54.90;21.37;;;;;;;-0.03;100.00;101598.00;4986697;23;20257;-72
2023/01/23 00:14:22;;;;;;;67.57;23.60;;;;;;;-0.05;100.00;101613.78;4994058;23;20331;-73
2023/01/23 00:16:48;;;;;;;64.23;21.50;;;;;;;-0.04;100.00;101610.25;4993025;23;20416;-70
2023/01/23 00:19:15;;;;;;;57.97;21.40;;;;;;;-0.06;100.00;101608.59;5010609;23;20277;-72
2023/01/23 00:21:41;;;;;;;66.07;22.97;;;;;;;-0.09;100.00;101612.16;5005780;23;20209;-72
2023/01/23 00:24:10;;;;;;;61.03;21.83;;;;;;;-0.05;100.00;101620.75;5008045;23;25603;-71
2023/01/23 00:26:36;;;;;;;67.43;22.53;;;;;;;-0.05;100.00;101621.63;4998895;23;20372;-72
2023/01/23 00:29:03;;;;;;;68.10;23.40;;;;;;;-0.06;100.00;101622.53;4963884;23;22510;-72
2023/01/23 00:31:36;;;;;;;66.37;22.97;;;;;;;-0.11;100.00;101626.19;4997502;23;20209;-71
2023/01/23 00:34:06;;;;;;;60.37;22.77;;;;;;;-0.09;100.00;101619.16;4973768;23;22544;-69
2023/01/23 00:36:35;;;;;;;61.83;23.30;;;;;;;-0.18;100.00;101620.28;4992875;23;22655;-72
2023/01/23 00:39:05;;;;;;;62.00;22.87;;;;;;;-0.15;100.00;101609.72;5006110;23;20214;-69
2023/01/23 00:41:32;;;;;;;65.97;23.17;;;;;;;-0.18;100.00;101620.28;5002537;23;20549;-73
2023/01/23 00:43:59;;;;;;;71.23;24.07;;;;;;;-0.23;100.00;101619.59;4989844;23;20243;-73
2023/01/23 00:46:25;;;;;;;75.57;22.30;;;;;;;-0.19;100.00;101615.09;4981632;23;20206;-72
2023/01/23 00:48:52;;;;;;;64.53;23.07;;;;;;;-0.19;100.00;101607.25;5001418;23;20272;-69
2023/01/23 00:51:18;;;;;;;64.70;23.63;;;;;;;-0.17;100.00;101619.38;4988833;23;21038;-71
2023/01/23 00:53:45;;;;;;;63.73;23.23;;;;;;;-0.11;100.00;101627.03;4991204;23;23103;-70
2023/01/23 00:56:12;;;;;;;69.83;23.83;;;;;;;-0.13;100.00;101622.75;5002187;23;20661;-71
2023/01/23 00:58:40;;;;;;;68.50;23.63;;;;;;;-0.16;100.00;101625.50;5005420;23;20307;-70
2023/01/23 01:01:10;;;;;;;70.27;23.50;;;;;;;-0.16;100.00;101625.50;4981366;23;20285;-70
2023/01/23 01:03:37;;;;;;;57.00;21.90;;;;;;;-0.02;100.00;101632.00;4989855;23;20206;-71
2023/01/23 01:06:03;;;;;;;67.17;23.57;;;;;;;-0.08;100.00;101631.31;4991808;23;20320;-71
2023/01/23 01:08:30;;;;;;;69.53;22.97;;;;;;;-0.12;100.00;101635.78;5004433;23;20675;-71
2023/01/23 01:10:57;;;;;;;75.33;23.67;;;;;;;-0.10;100.00;101626.13;5007174;23;21189;-72
2023/01/23 01:13:23;;;;;;;70.47;23.90;;;;;;;-0.12;100.00;101633.16;4991110;23;22777;-71
2023/01/23 01:15:51;;;;;;;73.87;23.80;;;;;;;-0.13;100.00;101634.06;5012009;23;20213;-70
2023/01/23 01:18:19;;;;;;;77.90;23.07;;;;;;;-0.05;100.00;101637.34;4994568;23;26912;-71
2023/01/23 01:20:47;;;;;;;78.80;22.80;;;;;;;-0.09;100.00;101640.09;5024000;23;20209;-70
2023/01/23 01:23:13;;;;;;;69.40;23.20;;;;;;;-0.08;100.00;101640.03;5007384;23;20244;-71
2023/01/23 01:25:40;;;;;;;67.77;22.37;;;;;;;-0.05;100.00;101647.78;4991887;23;20625;-71
2023/01/23 01:28:07;;;;;;;77.23;23.47;;;;;;;0.09;100.00;101643.88;4981674;23;20272;-69
2023/01/23 01:30:35;;;;;;;81.77;24.53;;;;;;;0.16;100.00;101648.88;4987879;23;20332;-69
2023/01/23 01:33:02;;;;;;;76.30;22.97;;;;;;;0.23;100.00;101641.66;5014251;23;23088;-71
2023/01/23 01:35:29;;;;;;;72.10;23.37;;;;;;;0.16;100.00;101646.28;4986831;23;20287;-70
2023/01/23 01:37:55;;;;;;;78.87;24.03;;;;;;;0.04;100.00;101653.63;5002949;23;22411;-69
2023/01/23 01:40:25;;;;;;;75.73;23.77;;;;;;;-0.12;100.00;101654.09;4977215;23;20399;-70
2023/01/23 01:42:58;;;;;;;72.40;23.60;;;;;;;-0.15;100.00;101655.97;4987679;23;20262;-71
2023/01/23 01:46:02;;;;;;;75.83;24.20;;;;;;;0.01;100.00;101656.34;5002748;23;20373;-72
2023/01/23 01:48:33;;;;;;;83.33;23.83;;;;;;;0.07;100.00;101656.16;5014676;23;20499;-72
2023/01/23 01:51:04;;;;;;;71.57;23.13;;;;;;;-0.22;100.00;101657.91;5007715;23;20232;-70
2023/01/23 01:53:32;;;;;;;75.70;23.43;;;;;;;-0.19;100.00;101665.66;4993978;23;20678;-69
2023/01/23 01:55:59;;;;;;;79.20;23.77;;;;;;;-0.26;100.00;101665.00;5008473;23;22372;-71
2023/01/23 01:58:26;;;;;;;80.00;24.03;;;;;;;-0.19;100.00;101659.56;4963644;23;20209;-69
2023/01/23 02:00:53;;;;;;;85.50;24.60;;;;;;;-0.19;100.00;101670.88;5004336;23;20209;-70
2023/01/23 02:03:20;;;;;;;82.07;22.80;;;;;;;-0.09;100.00;101666.25;4970435;23;20202;-69
2023/01/23 02:05:48;;;;;;;77.73;24.77;;;;;;;-0.16;100.00;101665.56;4962799;23;21255;-70
2023/01/23 02:08:41;;;;;;;83.07;24.17;;;;;;;-0.15;100.00;101669.03;4992049;23;20216;-72
2023/01/23 02:11:07;;;;;;;78.03;24.50;;;;;;;-0.18;100.00;101671.75;4989179;23;21327;-71
2023/01/23 02:13:38;;;;;;;83.77;23.40;;;;;;;-0.22;100.00;101674.44;5009055;23;22852;-69
2023/01/23 02:16:06;;;;;;;86.73;24.77;;;;;;;-0.26;100.00;101675.47;5000668;23;20201;-71
2023/01/23 02:18:35;;;;;;;87.63;24.37;;;;;;;-0.17;100.00;101679.53;4989509;23;21445;-69
2023/01/23 02:21:06;;;;;;;88.77;25.00;;;;;;;-0.17;100.00;101684.78;5014230;23;20680;-68
2023/01/23 02:23:57;;;;;;;74.47;23.03;;;;;;;-0.16;100.00;101685.66;4997315;23;21920;-70
2023/01/23 02:26:44;;;;;;;75.83;24.30;;;;;;;-0.10;100.00;101675.84;5022986;23;21812;-69
2023/01/23 02:29:12;;;;;;;85.63;25.80;;;;;;;-0.08;100.00;101674.03;4968529;23;20257;-63
2023/01/23 02:31:41;;;;;;;84.50;25.87;;;;;;;-0.17;100.00;101669.06;4967165;23;20252;-66
2023/01/23 02:34:09;;;;;;;87.53;24.90;;;;;;;-0.14;100.00;101679.47;4975144;23;20207;-65
2023/01/23 02:36:36;;;;;;;81.47;23.07;;;;;;;-0.17;100.00;101678.69;4997431;23;20213;-65
2023/01/23 02:39:08;;;;;;;89.50;25.57;;;;;;;-0.10;100.00;101680.22;4985350;23;20623;-67
2023/01/23 02:41:44;;;;;;;95.10;25.53;;;;;;;-0.11;100.00;101679.38;4989891;23;20210;-65
2023/01/23 02:44:26;;;;;;;102.23;25.70;;;;;;;-0.15;100.00;101688.19;4977527;23;20368;-66
2023/01/23 02:46:58;;;;;;;83.00;25.07;;;;;;;-0.02;100.00;101680.84;4953085;23;20217;-66
2023/01/23 02:49:25;;;;;;;90.03;25.00;;;;;;;-0.05;100.00;101684.44;4995800;23;20213;-64
2023/01/23 02:51:53;;;;;;;86.07;24.57;;;;;;;-0.07;100.00;101681.00;4995981;23;21744;-65
2023/01/23 02:54:20;;;;;;;86.67;24.20;;;;;;;-0.05;100.00;101684.44;4987032;23;20229;-63
2023/01/23 02:56:47;;;;;;;90.60;25.43;;;;;;;-0.09;100.00;101677.56;4987313;23;20848;-67
2023/01/23 03:01:59;;;;;;;88.10;24.40;;;;;;;-0.01;100.00;101682.56;4960709;23;20211;-66
2023/01/23 03:04:25;;;;;;;94.60;25.67;;;;;;;-0.05;100.00;101679.19;4998598;23;21209;-68
2023/01/23 03:06:52;;;;;;;94.17;27.23;;;;;;;-0.08;100.00;101674.03;5000342;23;20704;-66
2023/01/23 03:09:19;;;;;;;93.67;26.40;;;;;;;-0.08;100.00;101678.41;4984164;23;22003;-66
2023/01/23 03:11:45;;;;;;;95.73;27.37;;;;;;;-0.05;100.00;101694.91;5015261;23;20259;-67
2023/01/23 03:14:14;;;;;;;91.40;25.90;;;;;;;-0.06;100.00;101695.78;4988627;23;20262;-67
2023/01/23 03:16:41;;;;;;;104.70;26.70;;;;;;;-0.08;100.00;101692.34;5011225;23;21151;-68
2023/01/23 03:19:09;;;;;;;104.43;26.97;;;;;;;0.07;100.00;101692.78;5012035;23;22856;-64
2023/01/23 03:21:39;;;;;;;93.60;26.20;;;;;;;0.02;100.00;101695.53;5003986;23;20213;-66
2023/01/23 03:24:08;;;;;;;99.47;25.03;;;;;;;0.03;100.00;101696.41;4987567;23;20210;-66
2023/01/23 03:26:38;;;;;;;100.40;26.70;;;;;;;-0.06;100.00;101698.41;4992934;23;20221;-65
2023/01/23 03:31:51;;;;;;;99.70;26.77;;;;;;;-0.03;100.00;101692.22;4999408;23;20206;-65
2023/01/23 03:34:17;;;;;;;91.23;22.93;;;;;;;-0.17;100.00;101695.22;4995144;23;20272;-64
2023/01/23 03:36:44;;;;;;;96.00;24.47;;;;;;;-0.18;100.00;101698.78;5011280;23;21495;-65
2023/01/23 03:41:56;;;;;;;92.37;26.77;;;;;;;-0.21;100.00;101698.88;5005501;23;20212;-66
2023/01/23 03:44:23;;;;;;;102.00;26.37;;;;;;;-0.14;100.00;101705.63;4997577;23;20221;-66
2023/01/23 03:46:51;;;;;;;95.47;25.40;;;;;;;-0.16;100.00;101715.28;5016616;23;23664;-65
2023/01/23 03:49:18;;;;;;;104.40;25.90;;;;;;;-0.06;100.00;101718.47;5005667;23;20209;-66
2023/01/23 03:51:44;;;;;;;94.40;24.80;;;;;;;-0.02;100.00;101713.13;4985574;23;20284;-65
2023/01/23 03:54:13;;;;;;;95.03;26.97;;;;;;;-0.06;100.00;101723.72;4993297;23;22429;-65
2023/01/23 03:56:41;;;;;;;90.97;25.77;;;;;;;-0.10;100.00;101725.53;5018066;23;21109;-66
2023/01/23 03:59:08;;;;;;;92.17;24.50;;;;;;;-0.13;100.00;101724.78;4994262;23;20715;-65
2023/01/23 04:01:35;;;;;;;93.97;25.57;;;;;;;-0.10;100.00;101732.53;4995886;23;23432;-64
2023/01/23 04:04:02;;;;;;;90.63;25.63;;;;;;;-0.03;100.00;101728.84;5017768;23;20206;-65
2023/01/23 04:06:28;;;;;;;89.47;24.57;;;;;;;-0.06;100.00;101728.94;4991106;23;20449;-65
2023/01/23 04:08:57;;;;;;;92.43;24.93;;;;;;;-0.09;100.00;101723.81;5022204;23;25636;-65
2023/01/23 04:11:27;;;;;;;92.83;25.83;;;;;;;-0.10;100.00;101725.53;4981256;23;21460;-65
2023/01/23 04:13:54;;;;;;;81.00;24.07;;;;;;;-0.07;100.00;101732.44;5015417;23;20834;-65
2023/01/23 04:16:21;;;;;;;82.40;23.20;;;;;;;-0.15;100.00;101727.44;4987000;23;20206;-66
2023/01/23 04:18:49;;;;;;;78.67;24.33;;;;;;;-0.16;100.00;101722.28;4977624;23;25206;-65
2023/01/23 04:21:16;;;;;;;95.77;27.80;;;;;;;-0.20;100.00;101726.72;4962390;23;25453;-65
2023/01/23 04:23:42;;;;;;;89.20;24.57;;;;;;;-0.21;100.00;101730.25;4993268;23;20609;-66
2023/01/23 04:26:09;;;;;;;110.13;27.13;;;;;;;-0.17;100.00;101733.63;5000295;23;20289;-64
2023/01/23 04:28:36;;;;;;;86.77;25.77;;;;;;;-0.16;100.00;101733.59;4996057;23;21628;-65
2023/01/23 04:31:03;;;;;;;98.77;25.37;;;;;;;-0.14;100.00;101737.03;4979100;23;20507;-66
2023/01/23 04:33:29;;;;;;;89.00;25.30;;;;;;;-0.13;100.00;101737.88;4996040;23;20216;-67
2023/01/23 04:36:02;;;;;;;90.57;25.03;;;;;;;-0.10;100.00;101749.09;4991568;23;20251;-66
2023/01/23 04:38:30;;;;;;;96.13;26.23;;;;;;;-0.16;100.00;101748.44;4987392;23;20258;-66
2023/01/23 04:40:56;;;;;;;98.70;25.70;;;;;;;-0.13;100.00;101750.97;5007968;23;20206;-64
2023/01/23 04:43:24;;;;;;;90.83;26.37;;;;;;;-0.18;100.00;101745.84;4995216;23;21065;-62
2023/01/23 04:45:52;;;;;;;107.70;26.20;;;;;;;-0.25;100.00;101739.09;4999542;23;20244;-64
2023/01/23 04:48:18;;;;;;;95.33;24.90;;;;;;;-0.18;100.00;101751.09;5003253;23;20206;-66
2023/01/23 04:50:45;;;;;;;86.90;24.57;;;;;;;-0.14;100.00;101747.50;5009366;23;20217;-64
2023/01/23 04:53:12;;;;;;;88.97;24.97;;;;;;;-0.14;100.00;101747.50;4989402;23;20213;-63
2023/01/23 04:55:40;;;;;;;92.87;24.47;;;;;;;-0.07;100.00;101749.03;4992228;23;20214;-67
2023/01/23 04:58:07;;;;;;;89.47;24.47;;;;;;;-0.06;100.00;101750.72;5013511;23;20208;-66
2023/01/23 05:00:33;;;;;;;84.77;25.23;;;;;;;-0.11;100.00;101752.63;4995131;23;20202;-66
2023/01/23 05:03:01;;;;;;;88.00;24.67;;;;;;;-0.15;100.00;101747.53;5004111;23;20208;-65
2023/01/23 05:05:28;;;;;;;87.87;26.03;;;;;;;-0.12;100.00;101750.88;4963400;23;20207;-66
2023/01/23 05:07:54;;;;;;;85.17;23.70;;;;;;;-0.17;100.00;101752.78;5017523;23;20647;-66
2023/01/23 05:10:21;;;;;;;93.80;23.83;;;;;;;-0.19;100.00;101757.19;4990667;23;20205;-65
2023/01/23 05:12:48;;;;;;;77.77;22.87;;;;;;;-0.17;100.00;101768.47;5000775;23;20209;-65
2023/01/23 05:15:16;;;;;;;88.47;24.83;;;;;;;-0.20;100.00;101755.50;5009868;23;21115;-65
2023/01/23 05:17:42;;;;;;;97.63;24.50;;;;;;;-0.23;100.00;101761.69;4995107;23;20379;-63
2023/01/23 05:20:09;;;;;;;87.53;25.20;;;;;;;-0.21;100.00;101761.66;4984645;23;21265;-64
2023/01/23 05:22:36;;;;;;;85.53;24.37;;;;;;;-0.14;100.00;101760.56;4999759;23;20568;-67
2023/01/23 05:25:03;;;;;;;82.27;24.17;;;;;;;-0.24;100.00;101759.94;5035222;23;20269;-64
2023/01/23 05:27:30;;;;;;;92.97;24.33;;;;;;;-0.24;100.00;101766.94;4990978;23;20209;-66
2023/01/23 05:29:56;;;;;;;79.50;24.50;;;;;;;-0.17;100.00;101759.78;4999500;23;20233;-64
2023/01/23 05:32:23;;;;;;;85.67;24.67;;;;;;;-0.21;100.00;101753.81;4994510;23;20209;-67
2023/01/23 05:34:49;;;;;;;96.90;25.97;;;;;;;-0.17;100.00;101768.47;4960622;23;20207;-64
2023/01/23 05:37:16;;;;;;;84.27;24.27;;;;;;;-0.17;100.00;101773.72;4992554;23;21682;-65
2023/01/23 05:39:43;;;;;;;83.93;23.83;;;;;;;-0.04;100.00;101774.25;5009586;23;20209;-67
2023/01/23 05:42:09;;;;;;;78.77;25.00;;;;;;;-0.04;100.00;101776.84;4985590;23;20213;-66
2023/01/23 05:44:36;;;;;;;93.47;24.63;;;;;;;-0.05;100.00;101778.63;4990439;23;21816;-65
2023/01/23 05:47:02;;;;;;;87.77;23.43;;;;;;;-0.04;100.00;101782.94;4991340;23;20225;-67
2023/01/23 05:49:29;;;;;;;82.43;24.97;;;;;;;-0.14;100.00;101780.63;4978174;23;23172;-64
2023/01/23 05:51:55;;;;;;;75.97;24.73;;;;;;;-0.12;100.00;101784.91;4995028;23;20370;-65
2023/01/23 05:54:22;;;;;;;81.73;23.83;;;;;;;-0.04;100.00;101795.19;5004619;23;20253;-65
2023/01/23 05:56:49;;;;;;;82.90;23.33;;;;;;;-0.04;100.00;101801.25;4979319;23;20213;-66
2023/01/23 05:59:15;;;;;;;91.73;25.33;;;;;;;-0.03;100.00;101808.19;4994398;23;20263;-64
2023/01/23 06:01:42;;;;;;;88.57;24.93;;;;;;;0.00;100.00;101807.28;5002224;23;20216;-64
2023/01/23 06:04:08;;;;;;;78.13;24.20;;;;;;;-0.04;100.00;101801.25;4999382;23;21863;-65
2023/01/23 06:06:35;;;;;;;76.17;23.30;;;;;;;-0.06;100.00;101805.69;4984765;23;20214;-65
2023/01/23 06:09:02;;;;;;;86.47;23.90;;;;;;;-0.06;100.00;101808.28;4998299;23;20210;-64
2023/01/23 06:11:28;;;;;;;77.60;24.27;;;;;;;-0.11;100.00;101812.78;4983176;23;20209;-67
2023/01/23 06:13:55;;;;;;;82.10;23.87;;;;;;;-0.13;100.00;101819.81;4989478;23;20411;-66
2023/01/23 06:16:22;;;;;;;85.93;24.90;;;;;;;-0.04;100.00;101822.19;4988173;23;23232;-63
2023/01/23 06:18:48;;;;;;;81.50;23.37;;;;;;;-0.04;100.00;101827.44;4993751;23;20687;-64
2023/01/23 06:21:17;;;;;;;71.67;23.93;;;;;;;-0.06;100.00;101824.00;4980236;23;20206;-65
2023/01/23 06:23:44;;;;;;;81.10;24.80;;;;;;;-0.04;100.00;101832.66;4990673;23;21578;-69
2023/01/23 06:26:12;;;;;;;91.57;25.50;;;;;;;-0.07;100.00;101831.88;5010450;23;20754;-62
2023/01/23 06:28:38;;;;;;;76.13;24.87;;;;;;;-0.05;100.00;101840.53;5016983;23;20252;-65
2023/01/23 06:31:08;;;;;;;74.60;24.60;;;;;;;-0.01;100.00;101848.25;5013521;23;20212;-64
2023/01/23 06:33:35;;;;;;;80.03;24.43;;;;;;;-0.02;100.00;101849.19;5004562;23;21489;-64
2023/01/23 06:36:05;;;;;;;73.80;23.33;;;;;;;0.03;100.00;101854.28;5003318;23;20253;-65
2023/01/23 06:38:32;;;;;;;80.90;24.83;;;;;;;0.04;100.00;101866.47;4996072;23;20250;-65
2023/01/23 06:40:58;;;;;;;89.53;25.53;;;;;;;-0.06;100.00;101875.47;5010405;23;20205;-66
2023/01/23 06:43:25;;;;;;;85.53;23.63;;;;;;;-0.10;100.00;101876.44;4984249;23;22950;-65
2023/01/23 06:45:52;;;;;;;88.07;25.23;;;;;;;0.02;100.00;101888.34;5036278;23;20365;-66
2023/01/23 06:48:19;;;;;;;78.60;25.03;;;;;;;-0.01;100.00;101884.03;5010654;23;20210;-66
2023/01/23 06:50:46;;;;;;;83.07;24.77;;;;;;;-0.05;100.00;101883.28;5031041;23;20212;-66
2023/01/23 06:53:14;;;;;;;75.57;24.50;;;;;;;-0.01;100.00;101887.50;5009126;23;22150;-67
2023/01/23 06:55:41;;;;;;;82.00;25.87;;;;;;;0.04;100.00;101891.78;5024876;23;20453;-68
2023/01/23 06:58:07;;;;;;;73.23;24.50;;;;;;;-0.05;100.00;101887.63;4995782;23;20269;-70
2023/01/23 07:00:34;;;;;;;72.53;23.20;;;;;;;-0.05;100.00;101888.53;5003080;23;20316;-66
2023/01/23 07:03:04;;;;;;;83.93;27.27;;;;;;;0.03;100.00;101887.44;5008548;23;20201;-69
2023/01/23 07:05:31;;;;;;;70.07;24.57;;;;;;;0.02;100.00;101885.72;4985644;23;20380;-65
2023/01/23 07:07:58;;;;;;;77.90;25.27;;;;;;;0.00;100.00;101891.00;5011452;23;20210;-66
2023/01/23 07:10:25;;;;;;;79.27;25.03;;;;;;;0.15;100.00;101894.97;5001706;23;21174;-66
2023/01/23 07:12:52;;;;;;;81.70;25.00;;;;;;;0.11;100.00;101893.31;4975761;23;20456;-67
2023/01/23 07:15:18;;;;;;;79.27;23.20;;;;;;;0.06;100.00;101901.28;5026028;23;20212;-66
2023/01/23 07:17:45;;;;;;;79.63;24.73;;;;;;;0.20;100.00;101900.91;5009526;23;21441;-65
2023/01/23 07:20:11;;;;;;;69.87;23.70;;;;;;;0.10;100.00;101905.56;5014661;23;20587;-65
2023/01/23 07:22:38;;;;;;;72.27;23.43;;;;;;;0.10;100.00;101907.31;4992241;23;21858;-67
2023/01/23 07:25:06;;;;;;;78.70;25.47;;;;;;;0.13;100.00;101907.22;5016882;23;21668;-69
2023/01/23 07:27:33;;;;;;;60.87;23.03;;;;;;;0.19;100.00;101917.53;5017407;23;20624;-70
2023/01/23 07:30:00;;;;;;;70.57;23.47;;;;;;;0.19;100.00;101907.94;4998118;23;20211;-69
2023/01/23 07:32:26;;;;;;;74.93;24.47;;;;;;;0.12;100.00;101909.00;5006564;23;20541;-67
2023/01/23 07:34:53;;;;;;;66.83;24.87;;;;;;;0.16;100.00;101913.25;5017873;23;25569;-70
2023/01/23 07:37:20;;;;;;;75.97;25.27;;;;;;;0.13;100.00;101912.47;5006100;23;20217;-69
2023/01/23 07:39:47;;;;;;;80.57;25.17;;;;;;;0.16;100.00;101904.53;5038568;23;23737;-68
2023/01/23 07:42:14;;;;;;;67.40;24.60;;;;;;;0.15;100.00;101908.06;5017363;23;21497;-69
2023/01/23 07:44:41;;;;;;;80.00;25.23;;;;;;;0.19;100.00;101912.31;5029036;23;20236;-70
2023/01/23 07:47:07;;;;;;;70.17;22.90;;;;;;;0.08;100.00;101907.34;5024175;23;20728;-70
2023/01/23 07:49:34;;;;;;;70.70;22.80;;;;;;;0.13;100.00;101899.38;4955848;23;20490;-66
2023/01/23 07:52:01;;;;;;;75.70;26.30;;;;;;;0.12;100.00;101906.38;5016814;23;20380;-68
2023/01/23 07:54:27;;;;;;;71.27;24.63;;;;;;;0.14;100.00;101908.94;5049271;23;22952;-76
2023/01/23 07:56:54;;;;;;;72.13;24.17;;;;;;;0.29;100.00;101913.75;5049315;23;20213;-68
2023/01/23 07:59:21;;;;;;;68.63;25.30;;;;;;;0.22;100.00;101919.22;5014055;23;20209;-70
2023/01/23 08:01:50;;;;;;;76.37;24.03;;;;;;;0.39;100.00;101919.59;5052296;23;21643;-69
2023/01/23 08:04:19;;;;;;;66.03;23.90;;;;;;;0.22;100.00;101930.53;5038852;23;20679;-68
2023/01/23 08:06:46;;;;;;;73.00;23.83;;;;;;;0.15;100.00;101923.75;4986028;23;21720;-67
2023/01/23 08:09:13;;;;;;;65.97;23.20;;;;;;;0.15;100.00;101932.47;5001066;23;21158;-70
2023/01/23 08:11:40;;;;;;;82.67;26.17;;;;;;;0.11;100.00;101929.97;5002577;23;22026;-67
2023/01/23 08:14:07;;;;;;;80.77;24.93;;;;;;;0.11;100.00;101932.59;4990182;23;25015;-68
2023/01/23 08:16:33;;;;;;;70.80;23.90;;;;;;;0.19;100.00;101928.00;4999517;23;20375;-66
2023/01/23 08:19:00;;;;;;;85.73;24.83;;;;;;;0.22;100.00;101932.31;5013439;23;20207;-67
2023/01/23 08:21:26;;;;;;;73.27;24.57;;;;;;;0.25;100.00;101932.22;4992474;23;20391;-66
2023/01/23 08:23:53;;;;;;;69.27;23.37;;;;;;;0.18;100.00;101926.28;4987027;23;20205;-68
2023/01/23 08:26:19;;;;;;;61.23;23.40;;;;;;;0.25;100.00;101926.97;5020109;23;20205;-68
2023/01/23 08:28:46;;;;;;;73.33;24.83;;;;;;;0.38;100.00;101931.84;4985824;23;20217;-70
2023/01/23 08:31:14;;;;;;;74.57;24.50;;;;;;;0.32;100.00;101945.09;4982046;23;20214;-68
2023/01/23 08:33:41;;;;;;;67.43;24.10;;;;;;;0.45;100.00;101950.00;4962626;23;20215;-69
2023/01/23 08:36:11;;;;;;;69.43;23.73;;;;;;;0.45;100.00;101953.47;5001089;23;21199;-67
2023/01/23 08:38:37;;;;;;;73.67;24.23;;;;;;;0.41;100.00;101952.69;4991505;23;20224;-70
2023/01/23 08:41:04;;;;;;;70.13;23.37;;;;;;;0.39;100.00;101954.47;4973037;23;20446;-67
2023/01/23 08:43:31;;;;;;;69.57;23.97;;;;;;;0.32;100.00;101955.56;4994863;23;22252;-67
2023/01/23 08:45:58;;;;;;;68.87;23.63;;;;;;;0.33;100.00;101959.91;4966264;23;22461;-67
2023/01/23 08:48:26;;;;;;;68.57;22.93;;;;;;;0.38;100.00;101965.88;5011001;23;21811;-69
2023/01/23 08:51:02;;;;;;;67.30;23.93;;;;;;;0.50;100.00;101969.06;5009037;23;21186;-69
2023/01/23 08:53:29;;;;;;;59.17;23.37;;;;;;;0.49;100.00;101972.56;4985610;23;20266;-68
2023/01/23 08:56:03;;;;;;;66.67;23.93;;;;;;;0.48;100.00;101981.34;5005057;23;20715;-68
2023/01/23 08:58:30;;;;;;;57.17;22.30;;;;;;;0.57;100.00;101981.94;4993073;23;25717;-67
2023/01/23 09:00:57;;;;;;;64.17;23.13;;;;;;;0.69;100.00;101978.13;4951067;23;22126;-65
2023/01/23 09:03:24;;;;;;;64.50;21.83;;;;;;;0.60;100.00;101975.75;5017111;23;20293;-67
2023/01/23 09:05:50;;;;;;;58.27;22.30;;;;;;;0.53;100.00;101974.22;5035723;23;20315;-69
2023/01/23 09:08:17;;;;;;;60.40;21.67;;;;;;;0.51;100.00;101974.25;4997669;23;20220;-67
2023/01/23 09:10:44;;;;;;;61.93;22.57;;;;;;;0.53;100.00;101971.59;5015919;23;20272;-71
2023/01/23 09:13:10;;;;;;;63.27;24.43;;;;;;;0.47;100.00;101964.78;5012603;23;20213;-53
2023/01/23 09:15:38;;;;;;;68.90;23.33;;;;;;;0.72;100.00;101964.06;5006111;23;21485;-69
2023/01/23 09:18:05;;;;;;;66.13;22.33;;;;;;;0.70;100.00;101969.34;4986573;23;20281;-68
2023/01/23 09:20:32;;;;;;;61.17;22.90;;;;;;;0.72;100.00;101969.31;4987931;23;20206;-66
2023/01/23 09:22:58;;;;;;;65.43;22.20;;;;;;;0.68;100.00;101968.56;4980536;23;20486;-67
2023/01/23 09:25:25;;;;;;;67.43;23.17;;;;;;;0.62;100.00;101958.22;5014331;23;21286;-66
2023/01/23 09:27:52;;;;;;;72.03;23.57;;;;;;;0.53;100.00;101961.13;5016015;23;25769;-66
2023/01/23 09:30:19;;;;;;;67.87;22.57;;;;;;;0.48;100.00;101956.00;5015265;23;22275;-67
2023/01/23 09:32:46;;;;;;;67.33;22.37;;;;;;;0.46;100.00;101959.56;5027299;23;20277;-67
2023/01/23 09:35:12;;;;;;;71.60;22.80;;;;;;;0.48;100.00;101949.91;4993692;23;20368;-67
2023/01/23 09:37:58;;;;;;;69.47;23.50;;;;;;;0.39;100.00;101951.88;5001308;23;20228;-66
2023/01/23 09:40:34;;;;;;;71.03;24.37;;;;;;;0.45;100.00;101950.00;5005478;23;20206;-68
2023/01/23 09:43:08;;;;;;;64.20;24.03;;;;;;;0.37;100.00;101948.44;5019178;23;20658;-66
2023/01/23 09:45:35;;;;;;;67.83;24.27;;;;;;;0.37;100.00;101950.19;4997227;23;23465;-67
2023/01/23 09:48:23;;;;;;;65.13;24.03;;;;;;;0.39;100.00;101945.78;5021086;23;20210;-67
2023/01/23 09:51:00;;;;;;;70.83;23.57;;;;;;;0.27;100.00;101952.22;5044874;23;20249;-66
2023/01/23 09:53:34;;;;;;;66.97;24.37;;;;;;;0.41;100.00;101943.97;4997701;23;22690;-65
2023/01/23 09:56:22;;;;;;;65.63;22.53;;;;;;;0.43;100.00;101946.56;4989902;23;21635;-66
2023/01/23 09:59:23;;;;;;;61.27;22.00;;;;;;;0.36;100.00;101946.72;5004097;23;20206;-68
2023/01/23 10:01:50;;;;;;;68.60;22.97;;;;;;;0.43;100.00;101949.19;4997624;23;21157;-68
2023/01/23 10:04:18;;;;;;;67.93;22.60;;;;;;;0.50;100.00;101950.72;5014624;23;20202;-68
2023/01/23 10:07:07;;;;;;;68.63;23.77;;;;;;;0.49;100.00;101949.00;4977187;23;20250;-69
2023/01/23 10:10:13;;;;;;;62.03;22.40;;;;;;;0.40;100.00;101958.00;4997588;23;20766;-69
2023/01/23 10:13:01;;;;;;;70.53;23.60;;;;;;;0.43;100.00;101955.28;4936202;23;20392;-67
2023/01/23 10:15:50;;;;;;;67.70;24.27;;;;;;;0.48;100.00;101950.75;4991745;23;25309;-67
2023/01/23 10:18:27;;;;;;;70.93;23.90;;;;;;;0.49;100.00;101960.34;5015789;23;20244;-68
2023/01/23 10:21:06;;;;;;;64.60;23.97;;;;;;;0.50;100.00;101959.44;5032560;23;20931;-67
2023/01/23 10:23:56;;;;;;;65.63;23.00;;;;;;;0.46;100.00;101956.94;4978275;23;20235;-67
2023/01/23 10:26:26;;;;;;;64.77;23.60;;;;;;;0.51;100.00;101949.81;4988103;23;25652;-65
2023/01/23 10:28:58;;;;;;;67.07;22.90;;;;;;;0.51;100.00;101955.06;4972496;23;20389;-66
2023/01/23 10:31:37;;;;;;;68.43;23.93;;;;;;;0.56;100.00;101948.81;5000330;23;20296;-66
2023/01/23 10:34:10;;;;;;;64.37;23.40;;;;;;;0.59;100.00;101950.47;5016074;23;20675;-68
2023/01/23 10:36:41;;;;;;;65.07;23.70;;;;;;;0.71;100.00;101952.72;5004333;23;20219;-67
2023/01/23 10:39:25;;;;;;;65.00;21.80;;;;;;;0.87;100.00;101952.28;4984707;23;20210;-68
2023/01/23 10:41:52;;;;;;;61.27;22.33;;;;;;;0.86;100.00;101959.28;4997359;23;20334;-64
2023/01/23 10:44:27;;;;;;;66.30;23.23;;;;;;;0.84;100.00;101955.84;4989574;23;25395;-67
2023/01/23 10:46:59;;;;;;;61.13;22.87;;;;;;;0.99;100.00;101959.78;4996512;23;23105;-67
2023/01/23 10:49:33;;;;;;;68.30;22.90;;;;;;;0.92;100.00;101961.72;4964982;23;22998;-67
2023/01/23 10:52:01;;;;;;;59.47;21.70;;;;;;;0.82;100.00;101950.66;5003348;23;20217;-70
2023/01/23 10:54:28;;;;;;;53.90;21.37;;;;;;;0.82;100.00;101950.66;5014918;23;20201;-66
2023/01/23 10:57:01;;;;;;;58.03;21.40;;;;;;;0.80;100.00;101946.38;5002235;23;20202;-67
2023/01/23 10:59:35;;;;;;;55.53;19.80;;;;;;;0.85;100.00;101949.72;4992983;23;20202;-67
2023/01/23 11:02:17;;;;;;;59.20;21.80;;;;;;;0.84;100.00;101947.97;4970467;23;20276;-66
2023/01/23 11:04:46;;;;;;;53.30;20.37;;;;;;;0.79;100.00;101950.72;4986007;23;20213;-66
2023/01/23 11:07:18;;;;;;;55.03;21.17;;;;;;;0.92;100.00;101953.03;4983348;23;20288;-68
2023/01/23 11:10:11;;;;;;;58.87;20.83;;;;;;;0.97;100.00;101954.59;4999803;23;20206;-67
2023/01/23 11:12:48;;;;;;;59.50;20.97;;;;;;;0.87;100.00;101952.28;5012227;23;20213;-66
2023/01/23 11:15:30;;;;;;;55.10;21.07;;;;;;;0.76;100.00;101953.44;4990114;23;20213;-65
2023/01/23 11:17:59;;;;;;;55.93;20.87;;;;;;;0.67;100.00;101960.72;5015901;23;20247;-68
2023/01/23 11:20:36;;;;;;;55.53;21.57;;;;;;;0.81;100.00;101959.41;5019375;23;20206;-67
2023/01/23 11:23:14;;;;;;;57.83;20.97;;;;;;;0.71;100.00;101955.34;4949264;23;20252;-66